Time;durP1;ratioP1;P1;durP2;ratioP2;P2;SDS_P1;SDS_P2;PMS_P1;PMS_P2;Temp;Humidity;BMP_temperature;BMP_pressure;BME280_temperature;BME280_humidity;BME280_pressure;Samples;Min_cycle;Max_cycle;Signal;HPM_P1;HPM_P2
2023/02/11 08:13:58;;;;;;;5.90;3.80;;;;;;;;;;5135390;27;20295;-77
2023/02/11 08:16:27;;;;;;;4.73;3.83;;;-1.60;99.90;;;;;;5134751;28;20424;-77
2023/02/11 08:18:56;;;;;;;7.93;4.07;;;-1.50;99.90;;;;;;5135516;27;20402;-77
2023/02/11 08:21:22;;;;;;;6.63;4.37;;;-1.40;99.90;;;;;;5133863;28;20189;-77
2023/02/11 08:23:48;;;;;;;5.27;2.53;;;-1.40;99.90;;;;;;5134176;27;20428;-77
2023/02/11 08:26:17;;;;;;;6.97;4.10;;;-0.80;99.90;;;;;;5134269;27;20174;-77
2023/02/11 08:28:44;;;;;;;13.97;5.73;;;-0.30;99.90;;;;;;5134042;27;20167;-77
2023/02/11 08:31:12;;;;;;;19.97;10.70;;;-0.30;99.90;;;;;;5132576;27;20247;-77
2023/02/11 08:33:39;;;;;;;16.63;9.10;;;0.10;99.90;;;;;;5132978;27;20472;-78
2023/02/11 08:36:17;;;;;;;13.00;8.07;;;0.00;99.90;;;;;;5133397;27;20165;-78
2023/02/11 08:38:43;;;;;;;8.57;4.40;;;-0.20;99.90;;;;;;5136515;27;20176;-81
2023/02/11 08:41:10;;;;;;;7.13;3.20;;;-0.20;99.90;;;;;;5137928;27;20176;-78
2023/02/11 08:43:40;;;;;;;6.33;4.20;;;-0.30;99.90;;;;;;5134309;27;20673;-77
2023/02/11 08:46:06;;;;;;;7.83;4.77;;;-0.20;99.90;;;;;;5133297;27;20148;-77
2023/02/11 08:48:32;;;;;;;7.07;4.30;;;0.10;99.90;;;;;;5135407;28;20175;-81
2023/02/11 08:50:58;;;;;;;6.00;4.20;;;;;;;;;;5138020;27;20229;-78
2023/02/11 08:53:24;;;;;;;5.60;3.90;;;0.00;99.90;;;;;;5136761;28;20210;-78
2023/02/11 08:55:52;;;;;;;7.57;4.87;;;-0.30;99.90;;;;;;5135954;28;20187;-78
2023/02/11 08:58:18;;;;;;;9.80;4.23;;;-0.30;99.90;;;;;;5141028;27;20196;-79
2023/02/11 09:00:44;;;;;;;7.50;4.13;;;0.00;99.90;;;;;;5139321;27;20201;-79
2023/02/11 09:03:11;;;;;;;7.40;4.17;;;0.20;99.90;;;;;;5135732;28;20580;-79
2023/02/11 09:05:48;;;;;;;20.97;10.20;;;0.30;99.90;;;;;;5136181;27;20179;-79
2023/02/11 09:08:15;;;;;;;9.30;6.03;;;0.30;99.90;;;;;;5137557;28;20171;-84
2023/02/11 09:10:41;;;;;;;12.00;6.83;;;0.30;99.90;;;;;;5134249;28;20316;-79
2023/02/11 09:22:07;;;;;;;8.10;5.50;;;0.20;99.90;;;;;;5134381;27;20276;-78
2023/02/11 09:26:26;;;;;;;11.17;6.70;;;0.30;99.90;;;;;;5133983;27;20294;-78
2023/02/11 09:28:52;;;;;;;9.30;5.07;;;0.40;99.90;;;;;;5134077;28;20179;-81
2023/02/11 09:31:20;;;;;;;10.30;5.80;;;0.50;99.90;;;;;;5118083;28;20613;-78
2023/02/11 09:33:49;;;;;;;12.73;5.43;;;0.60;99.90;;;;;;5131842;28;20563;-78
2023/02/11 09:36:17;;;;;;;9.97;5.67;;;0.60;99.90;;;;;;5133430;28;20174;-79
2023/02/11 09:38:43;;;;;;;7.17;4.90;;;;;;;;;;5135462;28;20180;-79
2023/02/11 09:41:40;;;;;;;7.37;4.43;;;0.90;99.90;;;;;;5143125;28;20271;-79
2023/02/11 09:44:09;;;;;;;5.80;4.20;;;1.10;99.90;;;;;;5141602;28;20207;-79
2023/02/11 09:46:40;;;;;;;6.37;3.87;;;1.20;99.90;;;;;;5134153;28;20181;-80
2023/02/11 09:49:13;;;;;;;7.60;4.13;;;1.20;99.90;;;;;;5134336;28;20624;-79
2023/02/11 09:51:53;;;;;;;8.90;3.97;;;1.40;99.90;;;;;;5133747;28;20168;-82
2023/02/11 09:54:29;;;;;;;10.57;5.17;;;1.40;99.90;;;;;;5132780;28;20272;-79
2023/02/11 09:56:55;;;;;;;6.87;5.50;;;1.30;99.90;;;;;;5134399;28;20164;-80
2023/02/11 09:59:21;;;;;;;6.53;4.00;;;1.40;99.90;;;;;;5134067;28;20202;-79
2023/02/11 10:02:01;;;;;;;8.57;4.80;;;1.40;99.90;;;;;;5134759;28;20185;-79
2023/02/11 10:04:47;;;;;;;10.50;4.50;;;1.60;99.90;;;;;;5136143;28;20196;-79
2023/02/11 10:07:38;;;;;;;13.40;4.73;;;1.70;99.90;;;;;;5134591;28;20180;-79
2023/02/11 10:10:31;;;;;;;13.37;5.60;;;2.00;99.90;;;;;;5133863;28;20185;-80
2023/02/11 10:13:23;;;;;;;9.13;5.03;;;2.50;99.90;;;;;;5134352;28;20163;-80
2023/02/11 10:16:04;;;;;;;7.73;4.57;;;2.50;99.90;;;;;;5134174;28;20244;-79
2023/02/11 10:18:29;;;;;;;7.00;4.60;;;2.70;99.90;;;;;;5134581;28;20272;-79
2023/02/11 10:21:29;;;;;;;12.07;5.40;;;3.00;99.90;;;;;;5135069;28;20208;-80
2023/02/11 10:23:59;;;;;;;12.43;4.70;;;3.30;99.80;;;;;;5132153;28;20201;-80
2023/02/11 10:26:37;;;;;;;11.10;4.73;;;3.60;99.90;;;;;;5132231;28;20600;-80
2023/02/11 10:29:30;;;;;;;9.87;4.73;;;3.70;99.70;;;;;;5132524;28;20270;-80
2023/02/11 10:31:57;;;;;;;11.73;5.37;;;3.70;99.60;;;;;;5133708;28;20221;-80
2023/02/11 10:34:23;;;;;;;11.33;5.53;;;3.60;99.30;;;;;;5134168;28;20271;-80
2023/02/11 10:36:49;;;;;;;9.83;4.83;;;3.70;99.20;;;;;;5124264;28;20662;-80
2023/02/11 10:39:18;;;;;;;9.93;5.17;;;3.80;98.30;;;;;;5119535;28;20274;-80
2023/02/11 10:41:49;;;;;;;13.83;6.80;;;3.90;98.30;;;;;;5120379;28;20178;-80
2023/02/11 10:44:27;;;;;;;9.97;5.57;;;3.90;97.90;;;;;;5119659;28;20221;-79
2023/02/11 10:46:54;;;;;;;10.80;4.90;;;3.80;97.80;;;;;;5121305;28;20179;-79
2023/02/11 10:49:34;;;;;;;10.93;5.00;;;3.80;97.70;;;;;;5122195;28;20181;-80
2023/02/11 10:52:24;;;;;;;14.17;4.80;;;3.90;98.40;;;;;;5119372;28;20178;-80
2023/02/11 10:55:01;;;;;;;14.37;5.40;;;4.10;98.30;;;;;;5121520;28;20196;-79
2023/02/11 10:57:43;;;;;;;10.40;5.60;;;4.30;99.60;;;;;;5120772;28;20174;-80
2023/02/11 11:00:41;;;;;;;9.03;5.27;;;4.50;98.50;;;;;;5120711;28;20166;-79
2023/02/11 11:03:30;;;;;;;12.10;5.37;;;4.70;97.60;;;;;;5119258;28;20178;-79
2023/02/11 11:06:02;;;;;;;13.50;6.27;;;4.70;97.10;;;;;;5119730;28;20202;-79
2023/02/11 11:08:44;;;;;;;17.10;5.90;;;4.90;97.10;;;;;;5121064;28;20200;-79
2023/02/11 11:11:13;;;;;;;11.53;4.83;;;5.20;96.20;;;;;;5120462;28;20203;-79
2023/02/11 11:13:52;;;;;;;6.73;4.60;;;5.50;95.40;;;;;;5118814;28;20205;-79
2023/02/11 11:16:31;;;;;;;9.37;4.23;;;5.70;94.20;;;;;;5117874;28;20160;-80
2023/02/11 11:19:05;;;;;;;6.77;3.97;;;5.80;92.60;;;;;;5117322;28;20195;-80
2023/02/11 11:21:49;;;;;;;14.27;5.00;;;5.70;92.50;;;;;;5117958;28;20178;-80
2023/02/11 11:24:28;;;;;;;7.73;4.00;;;5.60;92.30;;;;;;5132891;28;20222;-80
2023/02/11 11:26:58;;;;;;;8.93;4.10;;;5.60;92.00;;;;;;5126595;28;20528;-81
2023/02/11 11:29:34;;;;;;;7.87;4.13;;;5.70;91.70;;;;;;5119392;28;20229;-80
2023/02/11 11:32:15;;;;;;;15.50;5.43;;;5.80;91.50;;;;;;5121189;28;20167;-80
2023/02/11 11:34:43;;;;;;;9.13;4.17;;;5.90;91.00;;;;;;5123130;28;20194;-80
2023/02/11 11:37:13;;;;;;;7.67;4.03;;;5.90;91.10;;;;;;5119373;28;20273;-80
2023/02/11 11:39:40;;;;;;;14.57;3.87;;;6.00;90.90;;;;;;5119599;28;20166;-80
2023/02/11 11:42:25;;;;;;;5.90;3.43;;;6.00;90.20;;;;;;5116941;28;20189;-81
2023/02/11 11:45:21;;;;;;;8.67;3.70;;;6.00;90.00;;;;;;5122056;28;20203;-81
2023/02/11 11:48:02;;;;;;;7.27;3.53;;;6.00;89.60;;;;;;5118571;28;20638;-80
2023/02/11 11:50:53;;;;;;;9.13;5.57;;;6.10;89.90;;;;;;5120472;28;20152;-80
2023/02/11 11:53:29;;;;;;;7.17;4.40;;;6.30;86.70;;;;;;5118323;28;20207;-80
2023/02/11 11:56:10;;;;;;;4.90;2.90;;;6.50;83.90;;;;;;5119828;28;20297;-81
2023/02/11 11:58:36;;;;;;;4.27;3.80;;;6.60;79.60;;;;;;5120023;28;20171;-81
2023/02/11 12:01:40;;;;;;;4.70;3.97;;;6.70;80.70;;;;;;5119870;28;20224;-80
2023/02/11 12:04:18;;;;;;;6.73;4.97;;;6.80;80.50;;;;;;5057879;28;20201;-81
2023/02/11 12:06:44;;;;;;;7.50;4.83;;;7.10;90.60;;;;;;5108821;28;20210;-80
2023/02/11 12:09:49;;;;;;;11.87;6.17;;;7.20;92.60;;;;;;5119090;28;20183;-81
2023/02/11 12:12:18;;;;;;;8.30;4.73;;;7.20;92.40;;;;;;5069791;28;20181;-81
2023/02/11 12:14:49;;;;;;;8.80;5.57;;;7.20;91.80;;;;;;5119735;28;20296;-81
2023/02/11 12:17:37;;;;;;;7.93;5.90;;;7.20;92.80;;;;;;5120674;28;20178;-81
2023/02/11 12:20:25;;;;;;;7.47;4.97;;;7.30;93.50;;;;;;5120206;28;20226;-81
2023/02/11 12:23:37;;;;;;;9.43;5.13;;;7.40;92.70;;;;;;5119377;28;20185;-81
2023/02/11 12:26:23;;;;;;;8.90;5.37;;;7.60;93.20;;;;;;5120088;28;20621;-81
2023/02/11 12:29:04;;;;;;;8.53;5.50;;;7.70;92.20;;;;;;5119251;28;20179;-81
2023/02/11 12:31:47;;;;;;;8.23;5.07;;;7.90;91.20;;;;;;5119339;28;20171;-81
2023/02/11 12:34:34;;;;;;;6.77;4.10;;;8.00;91.10;;;;;;5118870;28;20204;-80
2023/02/11 12:37:18;;;;;;;10.00;5.40;;;8.30;85.50;;;;;;5119289;28;20174;-81
2023/02/11 12:40:02;;;;;;;4.00;3.33;;;8.60;91.10;;;;;;5119163;28;20562;-81
2023/02/11 12:45:54;;;;;;;9.60;5.37;;;8.90;68.70;;;;;;5123415;28;20197;-81
2023/02/11 12:48:31;;;;;;;6.87;4.07;;;9.10;64.80;;;;;;5120285;28;20179;-80
2023/02/11 12:51:18;;;;;;;4.70;3.00;;;10.40;67.00;;;;;;5120100;28;20194;-80
2023/02/11 12:54:12;;;;;;;6.27;4.33;;;12.30;60.80;;;;;;5120138;28;20199;-80
2023/02/11 12:56:51;;;;;;;7.87;4.77;;;12.20;54.80;;;;;;5122525;28;20178;-80
2023/02/11 12:59:37;;;;;;;9.77;6.03;;;11.50;55.00;;;;;;5115187;28;20159;-79
2023/02/11 13:02:20;;;;;;;9.70;5.63;;;11.00;55.30;;;;;;5114203;28;20179;-80
2023/02/11 13:04:52;;;;;;;17.63;8.60;;;10.40;53.50;;;;;;5113834;28;20207;-79
2023/02/11 13:07:33;;;;;;;9.13;4.97;;;10.20;55.10;;;;;;5113738;28;20643;-79
2023/02/11 13:10:06;;;;;;;7.97;4.50;;;10.00;53.80;;;;;;5114488;28;20171;-79
2023/02/11 13:15:18;;;;;;;26.73;12.50;;;9.40;54.30;;;;;;5116114;28;20662;-79
2023/02/11 13:18:12;;;;;;;20.80;8.77;;;9.70;54.80;;;;;;5114174;28;20214;-79
2023/02/11 13:20:57;;;;;;;16.20;6.03;;;10.30;55.00;;;;;;5077961;28;20194;-79
2023/02/11 13:23:32;;;;;;;19.00;8.10;;;11.90;52.30;;;;;;5115552;28;20191;-79
2023/02/11 13:26:09;;;;;;;10.13;4.93;;;13.10;51.30;;;;;;5114001;28;20207;-79
2023/02/11 13:28:55;;;;;;;9.30;4.40;;;14.10;49.60;;;;;;5115444;28;20155;-79
2023/02/11 13:31:25;;;;;;;16.10;7.23;;;15.10;47.20;;;;;;5114955;28;20195;-80
2023/02/11 13:33:51;;;;;;;6.03;3.10;;;15.20;45.00;;;;;;5113536;28;20267;-79
2023/02/11 13:36:22;;;;;;;4.50;2.50;;;15.20;43.90;;;;;;5114391;28;20176;-79
2023/02/11 13:39:04;;;;;;;3.73;2.57;;;14.80;44.30;;;;;;5114251;28;20201;-80
2023/02/11 13:41:39;;;;;;;6.70;2.40;;;15.20;43.10;;;;;;5115682;28;20237;-80
2023/02/11 13:44:21;;;;;;;10.93;5.73;;;14.90;43.50;;;;;;5114876;28;20559;-80
2023/02/11 13:47:01;;;;;;;16.07;7.30;;;13.80;44.60;;;;;;5113860;28;20167;-80
2023/02/11 13:49:32;;;;;;;6.90;4.10;;;12.30;45.90;;;;;;5113813;28;20173;-80
2023/02/11 13:52:00;;;;;;;10.90;6.33;;;11.60;46.30;;;;;;5113724;28;20195;-80
2023/02/11 13:54:37;;;;;;;45.57;25.63;;;11.10;48.20;;;;;;5114602;28;20201;-79
2023/02/11 13:57:21;;;;;;;27.40;14.87;;;11.80;47.10;;;;;;5113468;28;20543;-79
2023/02/11 13:59:55;;;;;;;17.67;12.03;;;13.50;44.40;;;;;;5114887;28;20179;-80
2023/02/11 14:11:02;;;;;;;2.87;2.47;;;13.10;41.70;;;;;;5115328;28;20168;-80
2023/02/11 14:13:32;;;;;;;4.50;2.67;;;11.90;42.80;;;;;;5118889;28;20218;-79
2023/02/11 14:16:23;;;;;;;3.13;2.40;;;11.10;43.20;;;;;;5117371;28;20168;-79
2023/02/11 14:18:55;;;;;;;5.00;2.90;;;10.50;44.80;;;;;;5118285;28;20163;-79
2023/02/11 14:21:26;;;;;;;6.53;3.90;;;10.20;46.60;;;;;;5118418;28;20157;-79
2023/02/11 14:24:13;;;;;;;9.43;6.30;;;10.10;48.60;;;;;;5124529;28;20202;-79
2023/02/11 14:26:55;;;;;;;5.93;2.97;;;9.90;48.40;;;;;;5120494;28;20255;-80
2023/02/11 14:29:23;;;;;;;5.63;3.07;;;9.60;49.80;;;;;;5119138;28;20171;-80
2023/02/11 14:31:54;;;;;;;4.00;3.17;;;9.50;53.40;;;;;;5119467;28;20171;-80
2023/02/11 14:34:20;;;;;;;8.07;3.37;;;9.30;54.40;;;;;;5118442;28;20248;-80
2023/02/11 14:37:09;;;;;;;4.27;3.13;;;9.20;56.10;;;;;;5118448;28;20171;-79
2023/02/11 14:39:51;;;;;;;3.77;3.00;;;9.20;55.50;;;;;;5119827;28;20247;-80
2023/02/11 14:42:25;;;;;;;4.43;3.17;;;9.00;53.50;;;;;;5129449;28;20229;-80
2023/02/11 14:44:55;;;;;;;3.73;3.10;;;9.00;54.10;;;;;;5132751;28;20245;-79
2023/02/11 14:47:35;;;;;;;5.13;2.80;;;8.80;54.00;;;;;;5133074;28;20310;-79
2023/02/11 14:50:01;;;;;;;5.03;3.40;;;8.70;54.40;;;;;;5127641;28;20303;-79
2023/02/11 14:52:37;;;;;;;3.97;3.57;;;8.70;55.60;;;;;;5132961;28;20246;-79
2023/02/11 14:55:15;;;;;;;7.00;4.00;;;8.60;55.90;;;;;;5134751;28;20191;-79
2023/02/11 14:57:43;;;;;;;7.30;3.30;;;8.60;56.50;;;;;;5135086;28;20197;-79
2023/02/11 15:00:27;;;;;;;9.07;3.50;;;8.50;57.70;;;;;;5132665;28;20242;-79
2023/02/11 15:02:52;;;;;;;15.53;8.73;;;8.50;55.60;;;;;;5133455;28;20163;-79
2023/02/11 15:05:27;;;;;;;22.10;11.47;;;8.40;55.20;;;;;;5129468;28;20696;-79
2023/02/11 15:07:58;;;;;;;7.97;5.37;;;8.30;55.00;;;;;;5134431;28;20194;-79
2023/02/11 15:10:43;;;;;;;10.27;5.77;;;8.30;55.40;;;;;;5134567;28;20179;-79
2023/02/11 15:13:17;;;;;;;11.00;6.33;;;8.30;56.50;;;;;;5136382;28;20197;-79
2023/02/11 15:15:45;;;;;;;10.23;3.93;;;8.30;55.00;;;;;;5135121;28;20166;-78
2023/02/11 15:18:21;;;;;;;5.60;3.10;;;8.20;54.40;;;;;;5135601;28;20183;-78
2023/02/11 15:20:48;;;;;;;6.43;3.43;;;8.00;54.40;;;;;;5135982;28;20156;-78
2023/02/11 15:23:25;;;;;;;4.43;3.70;;;7.90;55.80;;;;;;5127554;28;20187;-78
2023/02/11 15:25:55;;;;;;;6.90;4.27;;;7.90;57.00;;;;;;5129848;28;20365;-79
2023/02/11 15:28:30;;;;;;;5.87;4.07;;;7.90;56.10;;;;;;5135954;28;20171;-79
2023/02/11 15:31:04;;;;;;;4.43;3.37;;;7.70;55.80;;;;;;5135541;28;20246;-79
2023/02/11 15:33:31;;;;;;;4.67;3.80;;;7.70;56.10;;;;;;5136505;28;20194;-79
2023/02/11 15:35:59;;;;;;;9.30;3.73;;;7.60;58.80;;;;;;5136176;28;20182;-79
2023/02/11 15:38:24;;;;;;;12.13;5.97;;;7.60;59.50;;;;;;5136440;28;20170;-79
2023/02/11 15:40:57;;;;;;;9.90;4.70;;;7.50;59.40;;;;;;5132724;28;20190;-79
2023/02/11 15:43:23;;;;;;;7.37;5.37;;;7.40;66.20;;;;;;5135315;28;20225;-78
2023/02/11 15:45:57;;;;;;;9.47;7.20;;;7.30;66.40;;;;;;5135296;28;20272;-78
2023/02/11 15:48:31;;;;;;;15.10;9.87;;;7.10;64.30;;;;;;5136788;28;20181;-79
2023/02/11 15:51:23;;;;;;;12.10;8.13;;;6.90;65.30;;;;;;5136941;27;20162;-78
2023/02/11 15:53:55;;;;;;;14.30;7.80;;;6.80;63.10;;;;;;5136129;28;20280;-79
